createdAt,value
2018-04-01T00:01:50.999Z,14.40
2018-04-01T00:04:17.112Z,15.63
2018-04-01T00:06:43.231Z,16.67
2018-04-01T00:09:09.420Z,14.87
2018-04-01T00:11:36.291Z,14.93
2018-04-01T00:14:02.451Z,14.73
2018-04-01T00:16:28.533Z,13.60
2018-04-01T00:18:54.713Z,17.67
2018-04-01T00:21:20.826Z,16.77
2018-04-01T00:23:47.939Z,17.37
2018-04-01T00:26:14.165Z,20.90
2018-04-01T00:28:40.292Z,22.97
2018-04-01T00:31:06.421Z,21.73
2018-04-01T00:33:32.547Z,18.70
2018-04-01T00:35:58.675Z,19.00
2018-04-01T00:38:24.835Z,18.70
2018-04-01T00:40:50.982Z,22.67
2018-04-01T00:43:17.080Z,20.83
2018-04-01T00:45:43.200Z,21.00
2018-04-01T00:48:09.308Z,23.73
2018-04-01T00:50:35.408Z,22.93
2018-04-01T00:53:02.272Z,23.57
2018-04-01T00:55:28.399Z,25.67
2018-04-01T00:57:54.512Z,23.90
2018-04-01T01:00:20.642Z,24.50
2018-04-01T01:02:46.770Z,24.67
2018-04-01T01:05:13.080Z,26.00
2018-04-01T01:07:39.951Z,23.17
2018-04-01T01:10:06.101Z,23.00
2018-04-01T01:12:32.200Z,26.33
2018-04-01T01:14:58.327Z,27.10
2018-04-01T01:17:24.488Z,23.93
2018-04-01T01:19:50.604Z,29.37
2018-04-01T01:22:16.764Z,27.33
2018-04-01T01:24:42.902Z,28.40
2018-04-01T01:27:09.845Z,26.47
2018-04-01T01:29:36.787Z,32.50
2018-04-01T01:32:02.873Z,36.70
2018-04-01T01:34:29.007Z,33.67
2018-04-01T01:36:55.851Z,41.20
2018-04-01T01:39:22.032Z,34.57
2018-04-01T01:41:48.904Z,36.00
2018-04-01T01:44:15.074Z,41.97
2018-04-01T01:46:41.203Z,38.00
2018-04-01T01:49:07.389Z,43.90
2018-04-01T01:51:33.536Z,35.70
2018-04-01T01:53:59.623Z,37.20
2018-04-01T01:56:25.738Z,42.43
2018-04-01T01:58:52.582Z,35.97
2018-04-01T02:01:19.474Z,31.10
2018-04-01T02:03:45.581Z,35.07
2018-04-01T02:06:11.840Z,33.57
2018-04-01T02:08:37.973Z,48.13
2018-04-01T02:11:04.094Z,44.50
2018-04-01T02:13:30.231Z,38.47
2018-04-01T02:15:56.370Z,42.43
2018-04-01T02:18:23.237Z,36.57
2018-04-01T02:20:49.347Z,37.70
2018-04-01T02:23:16.270Z,41.03
2018-04-01T02:25:42.365Z,40.07
2018-04-01T02:28:08.479Z,43.03
2018-04-01T02:30:34.619Z,48.20
2018-04-01T02:33:00.744Z,44.30
2018-04-01T02:35:26.930Z,48.93
2018-04-01T02:37:53.770Z,47.43
2018-04-01T02:40:20.726Z,44.47
2018-04-01T02:42:46.882Z,49.23
2018-04-01T02:45:13.043Z,48.13
2018-04-01T02:47:39.153Z,49.43
2018-04-01T02:50:05.345Z,46.83
2018-04-01T02:52:31.484Z,57.60
2018-04-01T02:54:57.609Z,53.63
2018-04-01T02:57:23.741Z,62.43
2018-04-01T02:59:49.865Z,57.93
2018-04-01T03:02:16.019Z,61.07
2018-04-01T03:04:42.198Z,53.97
2018-04-01T03:07:08.349Z,67.30
2018-04-01T03:09:34.506Z,62.50
2018-04-01T03:12:00.692Z,57.63
2018-04-01T03:14:27.540Z,59.43
2018-04-01T03:16:53.708Z,52.10
2018-04-01T03:19:19.820Z,50.93
2018-04-01T03:21:46.028Z,54.37
2018-04-01T03:24:12.171Z,56.03
2018-04-01T03:26:38.317Z,57.80
2018-04-01T03:29:04.433Z,57.93
2018-04-01T03:31:30.594Z,61.90
2018-04-01T03:33:57.469Z,57.77
2018-04-01T03:36:23.625Z,59.70
2018-04-01T03:38:49.727Z,56.00
2018-04-01T03:41:15.911Z,62.30
2018-04-01T03:43:42.050Z,60.63
2018-04-01T03:46:08.964Z,55.87
2018-04-01T03:48:35.110Z,56.53
2018-04-01T03:51:01.237Z,53.90
2018-04-01T03:53:27.325Z,60.13
2018-04-01T03:55:53.452Z,61.37
2018-04-01T03:58:19.568Z,56.00
2018-04-01T04:00:45.692Z,57.13
2018-04-01T04:03:11.866Z,52.83
2018-04-01T04:05:37.952Z,59.90
2018-04-01T04:08:04.157Z,55.57
2018-04-01T04:10:30.344Z,59.33
2018-04-01T04:12:56.784Z,57.60
2018-04-01T04:15:23.642Z,55.20
2018-04-01T04:17:50.445Z,61.50
2018-04-01T04:20:16.558Z,54.30
2018-04-01T04:22:42.669Z,51.23
2018-04-01T04:25:08.806Z,54.80
2018-04-01T04:27:34.933Z,53.37
2018-04-01T04:30:01.436Z,56.70
2018-04-01T04:32:27.548Z,53.80
2018-04-01T04:34:54.396Z,56.63
2018-04-01T04:37:21.305Z,52.60
2018-04-01T04:39:47.485Z,56.03
2018-04-01T04:42:13.629Z,52.77
2018-04-01T04:44:39.744Z,48.73
2018-04-01T04:47:05.881Z,56.50
2018-04-01T04:49:32.066Z,47.17
2018-04-01T04:51:58.937Z,41.83
2018-04-01T04:54:25.075Z,42.07
2018-04-01T04:56:51.234Z,41.60
2018-04-01T04:59:17.365Z,42.77
2018-04-01T05:01:44.213Z,45.50
2018-04-01T05:04:10.394Z,43.33
2018-04-01T05:06:36.517Z,43.10
2018-04-01T05:09:02.705Z,50.00
2018-04-01T05:11:28.878Z,46.83
2018-04-01T05:13:54.989Z,46.40
2018-04-01T05:16:21.506Z,45.40
2018-04-01T05:18:48.464Z,49.97
2018-04-01T05:21:15.352Z,49.57
2018-04-01T05:23:41.505Z,45.13
2018-04-01T05:26:07.668Z,49.23
2018-04-01T05:28:33.842Z,51.37
2018-04-01T05:30:59.978Z,57.00
2018-04-01T05:33:26.110Z,54.07
2018-04-01T05:35:52.276Z,51.77
2018-04-01T05:38:18.372Z,51.93
2018-04-01T05:40:44.551Z,60.30
2018-04-01T05:43:10.707Z,50.30
2018-04-01T05:45:36.864Z,50.80
2018-04-01T05:48:03.775Z,49.03
2018-04-01T05:50:29.969Z,40.40
2018-04-01T05:52:56.169Z,41.20
2018-04-01T05:55:23.086Z,39.77
2018-04-01T05:57:49.207Z,44.77
2018-04-01T06:00:15.332Z,39.57
2018-04-01T06:02:41.459Z,42.57
2018-04-01T06:05:07.581Z,37.37
2018-04-01T06:07:33.717Z,38.63
2018-04-01T06:09:59.873Z,37.00
2018-04-01T06:12:26.751Z,42.17
2018-04-01T06:14:52.923Z,44.47
2018-04-01T06:17:19.067Z,48.30
2018-04-01T06:19:45.185Z,39.80
2018-04-01T06:22:11.326Z,46.80
2018-04-01T06:24:38.248Z,47.37
2018-04-01T06:27:04.366Z,52.97
2018-04-01T06:29:30.522Z,44.90
2018-04-01T06:31:57.382Z,48.47
2018-04-01T06:34:23.770Z,46.40
2018-04-01T06:36:49.908Z,43.30
2018-04-01T06:39:16.032Z,41.40
2018-04-01T06:41:42.948Z,38.23
2018-04-01T06:44:09.084Z,37.73
2018-04-01T06:46:36.227Z,34.10
2018-04-01T06:49:02.380Z,32.57
2018-04-01T06:51:28.541Z,31.03
2018-04-01T06:53:54.705Z,33.40
2018-04-01T06:56:20.847Z,28.10
2018-04-01T06:58:46.954Z,33.63
2018-04-01T07:01:13.094Z,35.10
2018-04-01T07:03:39.225Z,32.10
2018-04-01T07:06:05.375Z,35.13
2018-04-01T07:08:32.293Z,45.17
2018-04-01T07:10:58.435Z,37.93
2018-04-01T07:13:24.641Z,33.60
2018-04-01T07:15:50.753Z,39.63
2018-04-01T07:18:16.890Z,36.70
2018-04-01T07:20:43.014Z,35.90
2018-04-01T07:23:09.131Z,34.40
2018-04-01T07:25:35.319Z,32.43
2018-04-01T07:28:02.215Z,29.17
2018-04-01T07:30:28.344Z,32.60
2018-04-01T07:32:54.473Z,29.10
2018-04-01T07:35:20.607Z,33.17
2018-04-01T07:37:46.772Z,33.87
2018-04-01T07:40:13.632Z,31.07
2018-04-01T07:42:39.795Z,28.10
2018-04-01T07:45:05.902Z,28.37
2018-04-01T07:47:32.028Z,33.23
2018-04-01T07:49:58.141Z,32.47
2018-04-01T07:52:24.272Z,30.73
2018-04-01T07:54:50.421Z,31.17
2018-04-01T07:57:16.542Z,29.90
2018-04-01T07:59:42.664Z,26.63
2018-04-01T08:02:08.791Z,27.93
2018-04-01T08:04:34.932Z,34.63
2018-04-01T08:07:01.032Z,30.47
2018-04-01T08:09:27.168Z,26.53
2018-04-01T08:11:53.304Z,27.20
2018-04-01T08:14:19.436Z,24.80
2018-04-01T08:16:45.604Z,25.13
2018-04-01T08:19:12.490Z,34.00
2018-04-01T08:21:38.616Z,30.37
2018-04-01T08:24:04.778Z,30.73
2018-04-01T08:26:30.935Z,33.03
2018-04-01T08:28:57.807Z,32.50
2018-04-01T08:31:23.933Z,39.30
2018-04-01T08:33:50.059Z,31.60
2018-04-01T08:36:16.186Z,36.50
2018-04-01T08:38:42.309Z,31.30
2018-04-01T08:41:08.450Z,36.60
2018-04-01T08:43:34.583Z,35.87
2018-04-01T08:46:01.065Z,38.57
2018-04-01T08:48:27.530Z,41.17
2018-04-01T08:50:53.645Z,38.10
2018-04-01T08:53:20.490Z,34.13
2018-04-01T08:55:47.372Z,34.37
2018-04-01T08:58:13.547Z,27.77
2018-04-01T09:00:40.446Z,32.20
2018-04-01T09:03:06.584Z,28.10
2018-04-01T09:05:32.692Z,29.27
2018-04-01T09:07:58.816Z,29.33
2018-04-01T09:10:25.044Z,29.77
2018-04-01T09:12:51.152Z,27.43
2018-04-01T09:15:17.270Z,28.80
2018-04-01T09:17:43.397Z,29.60
2018-04-01T09:20:09.557Z,35.87
2018-04-01T09:22:35.731Z,33.43
2018-04-01T09:25:02.629Z,31.13
2018-04-01T09:27:28.790Z,29.80
2018-04-01T09:29:54.922Z,35.23
2018-04-01T09:32:21.049Z,32.37
2018-04-01T09:34:47.144Z,35.20
2018-04-01T09:37:13.248Z,39.43
2018-04-01T09:39:39.365Z,37.07
2018-04-01T09:42:05.482Z,37.40
2018-04-01T09:44:31.627Z,37.97
2018-04-01T09:46:57.761Z,39.70
2018-04-01T09:49:23.903Z,31.83
2018-04-01T09:51:50.033Z,31.93
2018-04-01T09:54:16.271Z,27.83
2018-04-01T09:56:42.421Z,27.03
2018-04-01T09:59:08.495Z,22.33
2018-04-01T10:01:35.656Z,24.30
2018-04-01T10:04:01.969Z,19.30
2018-04-01T10:06:28.248Z,21.27
2018-04-01T10:08:54.548Z,21.10
2018-04-01T10:11:20.903Z,20.60
2018-04-01T10:13:47.208Z,24.00
2018-04-01T10:16:13.737Z,22.43
2018-04-01T10:18:40.024Z,21.07
2018-04-01T10:21:07.155Z,21.50
2018-04-01T10:23:33.508Z,19.23
2018-04-01T10:26:00.544Z,19.60
2018-04-01T10:28:26.824Z,18.00
2018-04-01T10:30:53.165Z,19.80
2018-04-01T10:33:19.447Z,24.93
2018-04-01T10:35:46.470Z,20.17
2018-04-01T10:38:12.769Z,23.10
2018-04-01T10:40:39.880Z,25.67
2018-04-01T10:43:06.867Z,20.77
2018-04-01T10:45:33.227Z,23.20
2018-04-01T10:47:59.526Z,21.97
2018-04-01T10:50:25.795Z,21.87
2018-04-01T10:52:52.108Z,22.77
2018-04-01T10:55:18.248Z,21.37
2018-04-01T10:57:44.364Z,27.97
2018-04-01T11:00:10.452Z,26.33
2018-04-01T11:02:36.584Z,24.97
2018-04-01T11:05:02.713Z,23.37
2018-04-01T11:07:28.838Z,23.20
2018-04-01T11:09:54.943Z,25.53
2018-04-01T11:12:21.818Z,24.60
2018-04-01T11:14:47.949Z,29.60
2018-04-01T11:17:14.123Z,33.10
2018-04-01T11:19:40.991Z,27.43
2018-04-01T11:22:07.120Z,31.37
2018-04-01T11:24:33.278Z,28.33
2018-04-01T11:26:59.409Z,26.43
2018-04-01T11:29:25.575Z,27.90
2018-04-01T11:31:52.488Z,27.03
2018-04-01T11:34:18.600Z,25.03
2018-04-01T11:36:44.721Z,24.30
2018-04-01T11:39:10.834Z,28.70
2018-04-01T11:41:36.946Z,29.07
2018-04-01T11:44:03.088Z,27.63
2018-04-01T11:46:29.261Z,25.87
2018-04-01T11:48:55.419Z,24.50
2018-04-01T11:51:22.259Z,21.87
2018-04-01T11:53:49.179Z,26.00
2018-04-01T11:56:15.279Z,24.80
2018-04-01T11:58:42.157Z,22.80
2018-04-01T12:01:09.005Z,25.47
2018-04-01T12:03:35.855Z,24.47
2018-04-01T12:06:02.722Z,22.80
2018-04-01T12:08:28.826Z,23.27
2018-04-01T12:10:55.718Z,24.83
2018-04-01T12:13:21.820Z,25.70
2018-04-01T12:15:48.019Z,22.67
2018-04-01T12:18:14.932Z,19.40
2018-04-01T12:20:41.181Z,18.03
2018-04-01T12:23:07.300Z,17.57
2018-04-01T12:25:33.427Z,14.70
2018-04-01T12:27:59.675Z,13.73
2018-04-01T12:30:26.551Z,16.23
2018-04-01T12:32:52.662Z,14.27
2018-04-01T12:35:19.512Z,18.73
2018-04-01T12:37:45.725Z,10.37
2018-04-01T12:40:12.585Z,8.53
2018-04-01T12:42:38.719Z,8.77
2018-04-01T12:45:04.855Z,7.47
2018-04-01T12:47:30.939Z,7.50
2018-04-01T12:49:57.791Z,7.60
2018-04-01T12:52:24.702Z,9.40
2018-04-01T12:54:51.000Z,7.90
2018-04-01T12:57:17.124Z,11.43
2018-04-01T12:59:43.248Z,8.03
2018-04-01T13:02:09.404Z,9.10
2018-04-01T13:04:35.538Z,7.90
2018-04-01T13:07:03.172Z,8.57
2018-04-01T13:09:33.758Z,9.20
2018-04-01T13:11:59.915Z,8.97
2018-04-01T13:14:26.114Z,10.20
2018-04-01T13:16:52.975Z,9.60
2018-04-01T13:19:19.092Z,9.40
2018-04-01T13:21:45.938Z,8.60
2018-04-01T13:24:12.885Z,10.80
2018-04-01T13:26:38.975Z,11.20
2018-04-01T13:29:05.157Z,9.37
2018-04-01T13:31:31.243Z,10.80
2018-04-01T13:33:58.188Z,8.37
2018-04-01T13:36:24.315Z,9.83
2018-04-01T13:38:50.436Z,9.90
2018-04-01T13:41:16.542Z,11.57
2018-04-01T13:43:42.672Z,9.93
2018-04-01T13:46:08.845Z,12.30
2018-04-01T13:48:34.987Z,10.80
2018-04-01T13:51:01.450Z,8.80
2018-04-01T13:53:27.596Z,10.73
2018-04-01T13:55:53.758Z,12.13
2018-04-01T13:58:19.880Z,10.50
2018-04-01T14:00:48.187Z,10.60
2018-04-01T14:03:14.301Z,12.10
2018-04-01T14:05:40.428Z,12.33
2018-04-01T14:08:06.853Z,12.27
2018-04-01T14:10:32.995Z,12.60
2018-04-01T14:12:59.105Z,14.30
2018-04-01T14:15:25.269Z,12.80
2018-04-01T14:17:51.407Z,10.10
2018-04-01T14:20:18.438Z,11.27
2018-04-01T14:22:44.671Z,13.40
2018-04-01T14:25:10.832Z,12.40
2018-04-01T14:27:36.995Z,12.30
2018-04-01T14:30:03.167Z,13.17
2018-04-01T14:32:29.319Z,12.20
2018-04-01T14:34:55.448Z,12.40
2018-04-01T14:37:21.575Z,14.87
2018-04-01T14:39:48.500Z,16.43
2018-04-01T14:42:14.688Z,16.60
2018-04-01T14:44:40.804Z,16.57
2018-04-01T14:47:07.026Z,15.40
2018-04-01T14:49:33.384Z,17.23
2018-04-01T14:51:59.516Z,15.40
2018-04-01T14:54:25.620Z,14.20
2018-04-01T14:56:51.760Z,17.33
2018-04-01T14:59:17.929Z,17.30
2018-04-01T15:01:44.114Z,14.30
2018-04-01T15:04:10.289Z,15.90
2018-04-01T15:06:36.428Z,15.77
2018-04-01T15:09:03.302Z,17.60
2018-04-01T15:11:29.561Z,18.33
2018-04-01T15:13:55.688Z,16.40
2018-04-01T15:16:21.843Z,12.90
2018-04-01T15:18:47.951Z,17.57
2018-04-01T15:21:14.069Z,14.03
2018-04-01T15:23:40.214Z,16.20
2018-04-01T15:26:08.170Z,15.80
2018-04-01T15:28:34.284Z,15.67
2018-04-01T15:31:00.423Z,13.50
2018-04-01T15:33:26.543Z,12.07
2018-04-01T15:35:52.710Z,14.23
2018-04-01T15:38:19.614Z,13.27
2018-04-01T15:40:46.042Z,11.83
2018-04-01T15:43:12.423Z,7.50
2018-04-01T15:45:38.516Z,9.33
2018-04-01T15:48:04.614Z,10.53
2018-04-01T15:50:31.796Z,9.03
2018-04-01T15:52:57.942Z,9.47
2018-04-01T15:55:24.806Z,9.73
2018-04-01T15:57:50.963Z,8.77
2018-04-01T16:00:17.062Z,8.10
2018-04-01T16:02:43.952Z,8.93
2018-04-01T16:05:10.887Z,10.53
2018-04-01T16:07:37.041Z,6.50
2018-04-01T16:10:03.145Z,7.93
2018-04-01T16:12:30.457Z,7.10
2018-04-01T16:14:57.299Z,7.60
2018-04-01T16:17:24.407Z,5.87
2018-04-01T16:19:50.539Z,6.53
2018-04-01T16:22:17.467Z,6.17
2018-04-01T16:24:43.570Z,9.30
2018-04-01T16:27:10.079Z,9.50
2018-04-01T16:29:38.509Z,8.33
2018-04-01T16:32:04.708Z,9.60
2018-04-01T16:34:32.327Z,9.23
2018-04-01T16:36:58.504Z,7.47
2018-04-01T16:39:25.230Z,9.80
2018-04-01T16:41:51.434Z,10.20
2018-04-01T16:44:17.571Z,10.23
2018-04-01T16:46:44.443Z,8.67
2018-04-01T16:49:10.573Z,11.30
2018-04-01T16:51:36.707Z,12.80
2018-04-01T16:54:02.864Z,12.20
2018-04-01T16:56:28.949Z,9.70
2018-04-01T16:58:55.100Z,11.03
2018-04-01T17:01:21.904Z,9.90
2018-04-01T17:03:48.095Z,12.10
2018-04-01T17:06:14.216Z,10.77
2018-04-01T17:08:40.367Z,12.10
2018-04-01T17:11:07.255Z,8.53
2018-04-01T17:13:33.653Z,11.67
2018-04-01T17:16:00.498Z,10.77
2018-04-01T17:18:26.656Z,11.70
2018-04-01T17:20:52.812Z,11.07
2018-04-01T17:23:18.935Z,11.10
2018-04-01T17:25:45.092Z,13.90
2018-04-01T17:28:11.267Z,13.27
2018-04-01T17:30:37.407Z,13.30
2018-04-01T17:33:03.534Z,13.03
2018-04-01T17:35:29.704Z,18.57
2018-04-01T17:37:56.618Z,15.67
2018-04-01T17:40:23.072Z,13.53
2018-04-01T17:42:50.004Z,15.57
2018-04-01T17:45:16.927Z,12.67
2018-04-01T17:47:43.043Z,13.13
2018-04-01T17:50:09.185Z,14.80
2018-04-01T17:52:35.294Z,17.50
2018-04-01T17:55:01.455Z,15.90
2018-04-01T17:57:27.879Z,16.37
2018-04-01T17:59:53.973Z,16.10
2018-04-01T18:02:20.113Z,17.80
2018-04-01T18:04:46.228Z,14.53
2018-04-01T18:07:12.694Z,17.00
2018-04-01T18:09:38.831Z,16.67
2018-04-01T18:12:05.084Z,17.27
2018-04-01T18:14:32.003Z,13.03
2018-04-01T18:16:58.899Z,17.00
2018-04-01T18:19:25.199Z,17.20
2018-04-01T18:21:51.326Z,16.63
2018-04-01T18:24:17.556Z,22.50
2018-04-01T18:26:44.430Z,15.10
2018-04-01T18:29:10.585Z,17.30
2018-04-01T18:31:36.796Z,22.60
2018-04-01T18:34:02.984Z,18.60
2018-04-01T18:36:29.124Z,20.63
2018-04-01T18:38:56.118Z,21.97
2018-04-01T18:41:22.275Z,23.50
2018-04-01T18:43:49.482Z,20.03
2018-04-01T18:46:15.697Z,23.10
2018-04-01T18:48:41.880Z,18.77
2018-04-01T18:51:08.157Z,20.10
2018-04-01T18:53:34.455Z,22.67
2018-04-01T18:56:01.012Z,24.50
2018-04-01T18:58:27.259Z,22.03
2018-04-01T19:00:53.458Z,20.13
2018-04-01T19:03:19.610Z,21.70
2018-04-01T19:05:45.763Z,23.30
2018-04-01T19:08:12.036Z,21.60
2018-04-01T19:10:38.946Z,24.90
2018-04-01T19:13:05.109Z,23.60
2018-04-01T19:15:32.063Z,21.80
2018-04-01T19:17:58.513Z,19.90
2018-04-01T19:20:25.201Z,23.50
2018-04-01T19:22:51.664Z,28.57
2018-04-01T19:25:18.892Z,19.97
2018-04-01T19:27:45.590Z,18.97
2018-04-01T19:30:13.068Z,22.00
2018-04-01T19:32:39.400Z,20.47
2018-04-01T19:35:06.261Z,23.10
2018-04-01T19:37:32.589Z,25.40
2018-04-01T19:39:58.905Z,24.60
2018-04-01T19:42:25.347Z,26.30
2018-04-01T19:44:51.693Z,22.93
2018-04-01T19:47:17.994Z,26.93
2018-04-01T19:49:44.381Z,24.27
2018-04-01T19:52:11.417Z,25.17
2018-04-01T19:54:38.607Z,24.80
2018-04-01T19:57:05.901Z,23.13
2018-04-01T19:59:32.236Z,25.13
2018-04-01T20:01:58.590Z,23.50
2018-04-01T20:04:25.673Z,24.17
2018-04-01T20:06:51.986Z,26.80
2018-04-01T20:09:18.320Z,24.50
2018-04-01T20:11:44.664Z,25.77
2018-04-01T20:14:10.970Z,24.70
2018-04-01T20:16:37.994Z,23.80
2018-04-01T20:19:04.414Z,26.53
2018-04-01T20:21:35.595Z,25.33
2018-04-01T20:24:02.680Z,26.97
2018-04-01T20:26:29.172Z,22.97
2018-04-01T20:28:56.229Z,24.80
2018-04-01T20:31:23.289Z,24.63
2018-04-01T20:33:49.606Z,26.50
2018-04-01T20:36:16.769Z,24.40
2018-04-01T20:38:43.084Z,26.73
2018-04-01T20:41:10.130Z,24.67
2018-04-01T20:43:37.159Z,23.73
2018-04-01T20:46:03.481Z,19.57
2018-04-01T20:48:29.819Z,25.33
2018-04-01T20:50:56.180Z,24.70
2018-04-01T20:53:23.282Z,18.87
2018-04-01T20:55:49.625Z,24.20
2018-04-01T20:58:16.904Z,30.30
2018-04-01T21:00:43.961Z,26.00
2018-04-01T21:03:10.984Z,23.80
2018-04-01T21:05:37.312Z,25.90
2018-04-01T21:08:04.384Z,23.87
2018-04-01T21:10:31.427Z,25.23
2018-04-01T21:12:58.504Z,23.93
2018-04-01T21:15:24.881Z,24.53
2018-04-01T21:17:51.205Z,24.27
2018-04-01T21:20:17.493Z,24.10
2018-04-01T21:22:43.795Z,24.10
2018-04-01T21:25:10.076Z,28.17
2018-04-01T21:27:36.425Z,27.63
2018-04-01T21:30:02.763Z,27.10
2018-04-01T21:32:29.098Z,28.83
2018-04-01T21:34:55.406Z,23.00
2018-04-01T21:37:21.709Z,24.03
2018-04-01T21:39:48.002Z,23.60
2018-04-01T21:42:14.348Z,19.57
2018-04-01T21:44:41.488Z,22.70
2018-04-01T21:47:07.778Z,23.53
2018-04-01T21:49:34.471Z,23.20
2018-04-01T21:52:01.517Z,20.50
2018-04-01T21:54:28.554Z,21.00
2018-04-01T21:56:54.870Z,19.83
2018-04-01T21:59:21.136Z,21.13
2018-04-01T22:01:47.452Z,20.70
2018-04-01T22:04:14.591Z,22.40
2018-04-01T22:06:40.937Z,22.47
2018-04-01T22:09:07.967Z,21.43
2018-04-01T22:11:34.299Z,24.30
2018-04-01T22:14:00.583Z,25.63
2018-04-01T22:16:26.876Z,22.83
2018-04-01T22:18:53.907Z,23.63
2018-04-01T22:21:20.180Z,18.77
2018-04-01T22:23:46.508Z,36.77
2018-04-01T22:26:12.799Z,19.00
2018-04-01T22:28:39.146Z,21.57
2018-04-01T22:31:06.304Z,18.80
2018-04-01T22:33:33.331Z,22.40
2018-04-01T22:35:59.646Z,22.23
2018-04-01T22:38:25.950Z,23.27
2018-04-01T22:40:52.661Z,22.43
2018-04-01T22:43:19.669Z,19.20
2018-04-01T22:45:45.937Z,26.00
2018-04-01T22:48:12.977Z,21.63
2018-04-01T22:50:39.275Z,21.13
2018-04-01T22:53:05.629Z,27.50
2018-04-01T22:55:32.653Z,25.57
2018-04-01T22:57:58.983Z,28.23
2018-04-01T23:00:25.295Z,23.47
2018-04-01T23:02:51.593Z,21.83
2018-04-01T23:05:17.886Z,25.33
2018-04-01T23:07:44.229Z,29.23
2018-04-01T23:10:11.285Z,25.00
2018-04-01T23:12:38.305Z,27.60
2018-04-01T23:15:04.640Z,23.97
2018-04-01T23:17:30.957Z,25.17
2018-04-01T23:19:57.232Z,26.83
2018-04-01T23:22:24.252Z,27.33
2018-04-01T23:24:50.564Z,28.63
2018-04-01T23:27:16.825Z,25.37
2018-04-01T23:29:43.158Z,25.47
2018-04-01T23:32:10.244Z,30.63
2018-04-01T23:34:36.546Z,30.70
2018-04-01T23:37:03.572Z,28.93
2018-04-01T23:39:30.208Z,29.77
2018-04-01T23:41:56.518Z,33.10
2018-04-01T23:44:22.824Z,27.80
2018-04-01T23:46:49.116Z,26.30
2018-04-01T23:49:16.135Z,24.27
2018-04-01T23:51:42.459Z,25.90
2018-04-01T23:54:08.760Z,28.90
2018-04-01T23:56:35.053Z,36.70
2018-04-01T23:59:01.390Z,29.20
